createdAt,value
2022-09-15T00:02:10.301Z,59.31
2022-09-15T00:04:36.749Z,59.00
2022-09-15T00:07:03.054Z,59.13
2022-09-15T00:09:29.371Z,59.25
2022-09-15T00:11:55.688Z,59.30
2022-09-15T00:14:21.993Z,59.18
2022-09-15T00:16:48.330Z,59.19
2022-09-15T00:19:14.694Z,59.11
2022-09-15T00:21:41.116Z,59.18
2022-09-15T00:24:07.421Z,59.40
2022-09-15T00:26:33.718Z,59.17
2022-09-15T00:29:00.029Z,59.33
2022-09-15T00:31:28.951Z,59.33
2022-09-15T00:33:56.710Z,59.39
2022-09-15T00:36:23.141Z,59.30
2022-09-15T00:38:49.467Z,59.22
2022-09-15T00:41:16.945Z,59.13
2022-09-15T00:43:45.946Z,59.09
2022-09-15T00:46:12.576Z,59.36
2022-09-15T00:48:44.213Z,59.31
2022-09-15T00:51:10.526Z,59.17
2022-09-15T00:53:36.877Z,59.30
2022-09-15T00:56:03.252Z,59.31
2022-09-15T00:58:30.953Z,59.15
2022-09-15T01:00:58.266Z,59.26
2022-09-15T01:03:24.719Z,59.09
2022-09-15T01:05:53.625Z,59.13
2022-09-15T01:08:26.815Z,59.34
2022-09-15T01:10:53.121Z,59.28
2022-09-15T01:13:19.430Z,59.00
2022-09-15T01:16:05.442Z,59.22
2022-09-15T01:18:51.247Z,59.13
2022-09-15T01:21:34.919Z,58.98
2022-09-15T01:24:20.120Z,59.02
2022-09-15T01:26:54.160Z,59.18
2022-09-15T01:29:38.329Z,58.84
2022-09-15T01:32:42.056Z,59.19
2022-09-15T01:35:08.295Z,58.84
2022-09-15T01:37:36.885Z,59.12
2022-09-15T01:40:03.351Z,58.82
2022-09-15T01:42:29.925Z,58.85
2022-09-15T01:44:57.930Z,58.87
2022-09-15T01:47:24.273Z,58.82
2022-09-15T01:49:51.197Z,58.95
2022-09-15T01:52:17.937Z,59.09
2022-09-15T01:54:48.681Z,58.92
2022-09-15T01:57:21.186Z,58.94
2022-09-15T01:59:48.033Z,58.80
2022-09-15T02:02:15.828Z,58.84
2022-09-15T02:04:47.206Z,59.09
2022-09-15T02:07:15.421Z,59.12
2022-09-15T02:09:48.445Z,59.10
2022-09-15T02:12:19.872Z,59.10
2022-09-15T02:14:55.951Z,58.99
2022-09-15T02:17:22.345Z,59.12
2022-09-15T02:19:53.774Z,59.12
2022-09-15T02:22:23.278Z,58.99
2022-09-15T02:24:57.204Z,59.12
2022-09-15T02:27:24.276Z,58.83
2022-09-15T02:29:51.911Z,59.01
2022-09-15T02:32:18.773Z,58.91
2022-09-15T02:34:46.069Z,59.02
2022-09-15T02:37:12.376Z,58.78
2022-09-15T02:39:39.838Z,58.70
2022-09-15T02:42:06.238Z,59.00
2022-09-15T02:44:32.800Z,58.91
2022-09-15T02:46:59.369Z,59.02
2022-09-15T02:49:25.705Z,58.88
2022-09-15T02:51:52.018Z,58.94
2022-09-15T02:54:18.832Z,58.66
2022-09-15T02:56:45.249Z,58.75
2022-09-15T02:59:11.598Z,58.95
2022-09-15T03:01:38.924Z,58.77
2022-09-15T03:04:05.278Z,58.98
2022-09-15T03:06:34.715Z,58.83
2022-09-15T03:09:02.719Z,58.93
2022-09-15T03:11:29.057Z,58.92
2022-09-15T03:13:56.130Z,58.93
2022-09-15T03:16:22.517Z,58.97
2022-09-15T03:18:48.890Z,58.90
2022-09-15T03:21:15.513Z,58.88
2022-09-15T03:23:41.911Z,58.70
2022-09-15T03:26:09.094Z,58.80
2022-09-15T03:28:35.733Z,58.79
2022-09-15T03:31:02.100Z,58.83
2022-09-15T03:33:29.707Z,58.44
2022-09-15T03:35:56.025Z,58.77
2022-09-15T03:38:22.342Z,58.47
2022-09-15T03:41:07.699Z,58.71
2022-09-15T03:43:34.089Z,58.74
2022-09-15T03:46:00.492Z,58.51
2022-09-15T03:48:26.911Z,58.70
2022-09-15T03:50:53.243Z,58.43
2022-09-15T03:53:20.095Z,58.56
2022-09-15T03:55:46.451Z,58.51
2022-09-15T03:58:12.768Z,58.64
2022-09-15T04:00:39.261Z,58.58
2022-09-15T04:03:06.704Z,58.38
2022-09-15T04:05:33.075Z,58.62
2022-09-15T04:07:59.399Z,58.49
2022-09-15T04:10:25.921Z,58.68
2022-09-15T04:12:52.490Z,58.49
2022-09-15T04:15:19.249Z,58.48
2022-09-15T04:17:45.696Z,58.63
2022-09-15T04:20:12.041Z,58.81
2022-09-15T04:22:38.364Z,58.85
2022-09-15T04:25:04.765Z,58.69
2022-09-15T04:27:34.302Z,58.52
2022-09-15T04:30:00.679Z,58.73
2022-09-15T04:32:28.202Z,58.59
2022-09-15T04:34:54.527Z,58.73
2022-09-15T04:37:20.844Z,58.89
2022-09-15T04:39:47.782Z,58.92
2022-09-15T04:42:14.186Z,57.61
2022-09-15T04:44:40.845Z,58.22
2022-09-15T04:47:07.334Z,58.41
2022-09-15T04:49:33.790Z,58.28
2022-09-15T04:52:00.105Z,57.90
2022-09-15T04:54:26.673Z,57.99
2022-09-15T04:56:52.985Z,58.40
2022-09-15T04:59:19.388Z,58.53
2022-09-15T05:01:45.781Z,58.61
2022-09-15T05:04:12.133Z,58.55
2022-09-15T05:06:38.494Z,58.53
2022-09-15T05:09:09.782Z,58.53
2022-09-15T05:11:36.693Z,58.45
2022-09-15T05:14:03.394Z,58.77
2022-09-15T05:16:29.743Z,58.93
2022-09-15T05:18:56.766Z,58.86
2022-09-15T05:21:23.129Z,58.62
2022-09-15T05:23:49.566Z,58.73
2022-09-15T05:26:16.690Z,59.50
2022-09-15T05:28:43.365Z,60.70
2022-09-15T05:31:10.652Z,59.64
2022-09-15T05:33:37.341Z,59.42
2022-09-15T05:36:03.908Z,58.85
2022-09-15T05:38:30.929Z,58.54
2022-09-15T05:41:03.345Z,58.14
2022-09-15T05:43:33.931Z,57.86
2022-09-15T05:46:00.287Z,58.11
2022-09-15T05:48:26.821Z,57.75
2022-09-15T05:50:53.513Z,58.15
2022-09-15T05:53:19.827Z,57.97
2022-09-15T05:55:46.211Z,57.87
2022-09-15T05:58:12.536Z,57.67
2022-09-15T06:00:38.853Z,58.16
2022-09-15T06:03:05.196Z,58.15
2022-09-15T06:05:31.554Z,58.03
2022-09-15T06:07:57.864Z,57.76
2022-09-15T06:10:27.116Z,57.64
2022-09-15T06:12:53.489Z,57.34
2022-09-15T06:15:20.213Z,57.34
2022-09-15T06:17:46.513Z,57.73
2022-09-15T06:20:12.825Z,57.33
2022-09-15T06:22:39.137Z,58.19
2022-09-15T06:25:05.857Z,57.78
2022-09-15T06:27:32.175Z,58.22
2022-09-15T06:29:58.478Z,57.68
2022-09-15T06:32:24.798Z,58.02
2022-09-15T06:34:51.123Z,57.52
2022-09-15T06:37:17.462Z,57.51
2022-09-15T06:39:44.238Z,57.14
2022-09-15T06:42:13.804Z,57.17
2022-09-15T06:44:41.273Z,56.35
2022-09-15T06:47:07.658Z,56.42
2022-09-15T06:49:34.007Z,56.12
2022-09-15T06:52:02.434Z,56.01
2022-09-15T06:54:28.777Z,55.81
2022-09-15T06:56:55.094Z,55.92
2022-09-15T06:59:23.841Z,55.65
2022-09-15T07:01:54.214Z,55.28
2022-09-15T07:04:20.608Z,55.59
2022-09-15T07:06:46.951Z,55.26
2022-09-15T07:09:13.365Z,54.51
2022-09-15T07:11:39.715Z,54.33
2022-09-15T07:14:06.046Z,54.33
2022-09-15T07:16:32.435Z,54.51
2022-09-15T07:19:01.189Z,54.89
2022-09-15T07:21:27.502Z,54.03
2022-09-15T07:23:54.139Z,53.41
2022-09-15T07:26:21.225Z,53.87
2022-09-15T07:28:49.827Z,54.52
2022-09-15T07:31:16.654Z,53.58
2022-09-15T07:33:43.043Z,53.34
2022-09-15T07:36:09.449Z,53.26
2022-09-15T07:38:35.773Z,53.91
2022-09-15T07:41:02.769Z,53.78
2022-09-15T07:43:29.098Z,53.90
2022-09-15T07:45:58.573Z,54.09
2022-09-15T07:48:26.607Z,53.73
2022-09-15T07:50:53.059Z,54.05
2022-09-15T07:53:19.379Z,54.76
2022-09-15T07:55:45.710Z,55.32
2022-09-15T07:58:12.018Z,54.78
2022-09-15T08:00:39.140Z,55.67
2022-09-15T08:03:05.491Z,55.74
2022-09-15T08:05:36.250Z,55.97
2022-09-15T08:08:05.494Z,56.13
2022-09-15T08:10:31.809Z,55.65
2022-09-15T08:13:00.870Z,55.87
2022-09-15T08:15:27.195Z,55.93
2022-09-15T08:17:53.510Z,55.95
2022-09-15T08:20:19.847Z,55.61
2022-09-15T08:22:46.231Z,56.33
2022-09-15T08:25:12.855Z,55.77
2022-09-15T08:27:39.365Z,56.22
2022-09-15T08:30:06.012Z,55.46
2022-09-15T08:32:32.329Z,54.71
2022-09-15T08:34:58.690Z,54.92
2022-09-15T08:37:25.005Z,55.50
2022-09-15T08:39:52.000Z,54.95
2022-09-15T08:42:18.709Z,55.09
2022-09-15T08:44:45.050Z,54.90
2022-09-15T08:47:12.755Z,55.00
2022-09-15T08:49:51.214Z,54.90
2022-09-15T08:52:26.809Z,54.95
2022-09-15T08:54:53.463Z,54.83
2022-09-15T08:57:19.953Z,55.18
2022-09-15T08:59:46.265Z,55.35
2022-09-15T09:02:23.530Z,55.25
2022-09-15T09:05:09.060Z,54.84
2022-09-15T09:07:38.307Z,55.33
2022-09-15T09:10:11.113Z,55.47
2022-09-15T09:12:41.245Z,55.87
2022-09-15T09:15:24.641Z,55.91
2022-09-15T09:17:50.936Z,55.62
2022-09-15T09:20:20.521Z,55.28
2022-09-15T09:22:46.829Z,54.97
2022-09-15T09:25:26.526Z,55.01
2022-09-15T09:27:53.347Z,54.69
2022-09-15T09:30:20.234Z,55.28
2022-09-15T09:32:47.925Z,55.55
2022-09-15T09:35:17.113Z,55.46
2022-09-15T09:37:43.665Z,55.00
2022-09-15T09:40:13.946Z,55.08
2022-09-15T09:42:40.350Z,55.10
2022-09-15T09:45:07.486Z,56.59
2022-09-15T09:47:34.860Z,56.33
2022-09-15T09:50:01.166Z,55.80
2022-09-15T09:52:34.219Z,55.56
2022-09-15T09:55:01.544Z,55.42
2022-09-15T09:57:30.962Z,55.31
2022-09-15T09:59:57.264Z,55.81
2022-09-15T10:02:24.794Z,55.94
2022-09-15T10:05:15.994Z,56.30
2022-09-15T10:07:43.748Z,56.58
2022-09-15T10:10:18.230Z,56.46
2022-09-15T10:12:44.539Z,56.83
2022-09-15T10:15:29.865Z,56.35
2022-09-15T10:17:56.188Z,56.52
2022-09-15T10:20:22.786Z,55.23
2022-09-15T10:22:49.094Z,55.55
2022-09-15T10:25:21.123Z,55.38
2022-09-15T10:28:06.318Z,55.63
2022-09-15T10:30:32.639Z,55.43
2022-09-15T10:33:10.002Z,55.86
2022-09-15T10:35:36.453Z,55.61
2022-09-15T10:38:09.473Z,55.90
2022-09-15T10:40:41.550Z,55.77
2022-09-15T10:43:20.213Z,55.77
2022-09-15T10:45:50.957Z,56.21
2022-09-15T10:48:23.223Z,56.08
2022-09-15T10:50:49.454Z,55.99
2022-09-15T10:53:17.164Z,56.21
2022-09-15T10:55:52.645Z,56.96
2022-09-15T10:58:39.980Z,56.39
2022-09-15T11:01:15.978Z,56.48
2022-09-15T11:03:47.305Z,56.72
2022-09-15T11:06:33.813Z,56.60
2022-09-15T11:09:09.443Z,56.75
2022-09-15T11:11:44.377Z,57.27
2022-09-15T11:14:20.965Z,58.58
2022-09-15T11:17:06.936Z,58.34
2022-09-15T11:19:43.407Z,58.79
2022-09-15T11:22:39.145Z,58.65
2022-09-15T11:25:10.714Z,57.84
2022-09-15T11:27:39.928Z,57.27
2022-09-15T11:30:18.877Z,58.40
2022-09-15T11:32:46.836Z,58.86
2022-09-15T11:35:33.350Z,58.71
2022-09-15T11:38:03.294Z,59.66
2022-09-15T11:40:33.286Z,60.39
2022-09-15T11:43:00.428Z,60.18
2022-09-15T11:45:27.776Z,60.32
2022-09-15T11:47:56.357Z,60.63
2022-09-15T11:50:35.785Z,60.92
2022-09-15T11:53:16.689Z,60.83
2022-09-15T11:55:43.578Z,62.56
2022-09-15T11:58:22.148Z,62.22
2022-09-15T12:01:03.103Z,63.23
2022-09-15T12:03:32.017Z,63.91
2022-09-15T12:06:00.083Z,64.33
2022-09-15T12:08:29.990Z,63.83
2022-09-15T12:10:56.591Z,62.64
2022-09-15T12:13:24.028Z,60.87
2022-09-15T12:15:50.677Z,60.38
2022-09-15T12:18:38.569Z,60.78
2022-09-15T12:21:05.509Z,60.67
2022-09-15T12:23:32.820Z,58.99
2022-09-15T12:26:15.672Z,58.36
2022-09-15T12:28:51.110Z,58.48
2022-09-15T12:31:23.493Z,57.49
2022-09-15T12:33:53.388Z,57.13
2022-09-15T12:36:29.634Z,56.99
2022-09-15T12:38:55.951Z,56.95
2022-09-15T12:41:22.637Z,56.70
2022-09-15T12:43:52.988Z,57.24
2022-09-15T12:46:19.423Z,56.82
2022-09-15T12:48:47.514Z,56.49
2022-09-15T12:51:20.666Z,56.32
2022-09-15T12:53:50.799Z,55.98
2022-09-15T12:56:24.569Z,56.40
2022-09-15T12:58:50.965Z,58.38
2022-09-15T13:01:23.270Z,59.12
2022-09-15T13:03:49.594Z,59.29
2022-09-15T13:06:17.082Z,59.53
2022-09-15T13:08:44.653Z,59.15
2022-09-15T13:11:10.897Z,59.21
2022-09-15T13:13:56.280Z,59.35
2022-09-15T13:16:27.436Z,59.18
2022-09-15T13:19:03.475Z,58.24
2022-09-15T13:21:29.790Z,56.13
2022-09-15T13:23:56.101Z,54.80
2022-09-15T13:26:23.973Z,52.99
2022-09-15T13:28:52.731Z,51.85
2022-09-15T13:31:34.403Z,51.00
2022-09-15T13:40:00.791Z,49.15
2022-09-15T13:42:36.930Z,49.71
2022-09-15T13:45:16.519Z,48.95
2022-09-15T13:47:58.789Z,52.46
2022-09-15T13:50:31.171Z,51.43
2022-09-15T13:52:57.549Z,51.26
2022-09-15T13:55:26.181Z,51.42
2022-09-15T14:00:48.240Z,51.88
2022-09-15T14:03:17.328Z,52.46
2022-09-15T14:05:43.807Z,52.33
2022-09-15T14:08:13.948Z,52.56
2022-09-15T14:10:51.227Z,52.73
2022-09-15T14:13:17.810Z,52.87
2022-09-15T14:16:03.294Z,52.85
2022-09-15T14:18:29.764Z,52.90
2022-09-15T14:21:00.365Z,53.09
2022-09-15T14:23:26.688Z,52.84
2022-09-15T14:25:53.010Z,53.11
2022-09-15T14:28:21.345Z,53.45
2022-09-15T14:30:47.741Z,53.12
2022-09-15T14:33:15.519Z,53.19
2022-09-15T14:35:41.963Z,53.61
2022-09-15T14:38:18.273Z,53.38
2022-09-15T14:40:44.699Z,52.98
2022-09-15T14:43:27.289Z,53.14
2022-09-15T14:45:57.772Z,54.04
2022-09-15T14:48:28.097Z,53.46
2022-09-15T14:50:56.834Z,53.59
2022-09-15T14:53:23.168Z,53.31
2022-09-15T14:55:53.253Z,53.14
2022-09-15T14:58:23.815Z,52.79
2022-09-15T15:00:58.104Z,52.70
2022-09-15T15:03:27.954Z,52.81
2022-09-15T15:06:02.463Z,52.86
2022-09-15T15:08:35.446Z,52.52
2022-09-15T15:11:01.928Z,52.94
2022-09-15T15:13:28.255Z,52.41
2022-09-15T15:15:54.833Z,52.37
2022-09-15T15:18:38.452Z,53.06
2022-09-15T15:21:05.250Z,53.09
2022-09-15T15:23:32.187Z,53.37
2022-09-15T15:26:23.094Z,52.76
2022-09-15T15:28:49.427Z,52.59
2022-09-15T15:31:19.263Z,52.96
2022-09-15T15:33:49.231Z,52.69
2022-09-15T15:36:15.711Z,52.56
2022-09-15T15:38:47.240Z,52.35
2022-09-15T15:41:18.869Z,52.69
2022-09-15T15:43:54.493Z,52.99
2022-09-15T15:46:40.793Z,53.41
2022-09-15T15:49:10.828Z,53.18
2022-09-15T15:51:37.264Z,53.42
2022-09-15T15:54:03.650Z,52.96
2022-09-15T15:56:31.194Z,53.37
2022-09-15T15:58:59.903Z,53.36
2022-09-15T16:01:26.284Z,52.89
2022-09-15T16:03:52.676Z,52.69
2022-09-15T16:06:18.995Z,52.42
2022-09-15T16:08:45.318Z,52.50
2022-09-15T16:11:12.377Z,52.46
2022-09-15T16:13:38.834Z,52.52
2022-09-15T16:16:18.255Z,52.79
2022-09-15T16:18:44.866Z,52.93
2022-09-15T16:21:13.711Z,52.82
2022-09-15T16:23:40.115Z,52.33
2022-09-15T16:26:09.455Z,52.37
2022-09-15T16:28:35.766Z,52.15
2022-09-15T16:31:02.194Z,52.66
2022-09-15T16:33:28.686Z,52.87
2022-09-15T16:36:06.666Z,53.20
2022-09-15T16:38:33.311Z,52.74
2022-09-15T16:40:59.843Z,52.53
2022-09-15T16:43:26.219Z,52.90
2022-09-15T16:45:52.546Z,52.85
2022-09-15T16:48:18.896Z,53.18
2022-09-15T16:51:01.672Z,52.60
2022-09-15T16:53:33.022Z,52.47
2022-09-15T16:55:59.390Z,52.93
2022-09-15T16:58:25.708Z,53.79
2022-09-15T17:00:52.812Z,53.82
2022-09-15T17:03:20.218Z,54.16
2022-09-15T17:05:48.518Z,54.03
2022-09-15T17:08:15.171Z,54.32
2022-09-15T17:10:41.501Z,54.56
2022-09-15T17:13:07.833Z,54.18
2022-09-15T17:15:34.951Z,54.66
2022-09-15T17:18:01.388Z,54.07
2022-09-15T17:20:27.690Z,53.56
2022-09-15T17:22:54.080Z,53.76
2022-09-15T17:25:24.483Z,53.77
2022-09-15T17:27:51.550Z,53.67
2022-09-15T17:30:18.223Z,54.14
2022-09-15T17:32:44.535Z,54.09
2022-09-15T17:35:31.180Z,54.11
2022-09-15T17:37:57.507Z,54.75
2022-09-15T17:40:23.843Z,54.80
2022-09-15T17:42:50.194Z,55.08
2022-09-15T17:45:35.431Z,55.00
2022-09-15T17:48:02.401Z,54.76
2022-09-15T17:50:29.339Z,54.36
2022-09-15T17:52:55.725Z,54.55
2022-09-15T17:55:21.995Z,54.90
2022-09-15T17:57:48.703Z,55.00
2022-09-15T18:00:15.650Z,55.36
2022-09-15T18:02:42.324Z,55.41
2022-09-15T18:05:38.015Z,55.28
2022-09-15T18:08:04.986Z,55.44
2022-09-15T18:10:31.686Z,55.44
2022-09-15T18:12:58.022Z,55.62
2022-09-15T18:15:25.994Z,55.79
2022-09-15T18:17:52.910Z,55.73
2022-09-15T18:20:20.552Z,55.90
2022-09-15T18:22:47.110Z,55.79
2022-09-15T18:25:15.041Z,56.00
2022-09-15T18:27:41.353Z,56.00
2022-09-15T18:30:07.952Z,56.08
2022-09-15T18:32:34.314Z,56.04
2022-09-15T18:35:00.646Z,56.07
2022-09-15T18:37:26.985Z,56.17
2022-09-15T18:39:53.427Z,56.20
2022-09-15T18:42:19.837Z,56.14
2022-09-15T18:44:46.176Z,56.11
2022-09-15T18:47:13.098Z,56.21
2022-09-15T18:49:39.460Z,56.31
2022-09-15T18:52:05.791Z,56.67
2022-09-15T18:54:34.794Z,56.44
2022-09-15T18:57:01.120Z,56.65
2022-09-15T18:59:27.451Z,56.70
2022-09-15T19:01:53.855Z,56.45
2022-09-15T19:04:20.318Z,56.70
2022-09-15T19:06:46.623Z,56.76
2022-09-15T19:09:12.962Z,56.42
2022-09-15T19:11:39.285Z,56.41
2022-09-15T19:14:05.606Z,56.41
2022-09-15T19:16:53.798Z,56.35
2022-09-15T19:19:19.522Z,56.70
2022-09-15T19:21:45.838Z,56.47
2022-09-15T19:24:12.153Z,56.39
2022-09-15T19:26:38.546Z,56.50
2022-09-15T19:29:04.967Z,56.37
2022-09-15T19:31:31.279Z,56.71
2022-09-15T19:33:57.634Z,56.49
2022-09-15T19:36:28.468Z,56.70
2022-09-15T19:38:55.215Z,56.82
2022-09-15T19:41:21.550Z,56.65
2022-09-15T19:43:47.898Z,56.60
2022-09-15T19:46:15.102Z,56.71
2022-09-15T19:48:44.529Z,56.76
2022-09-15T19:51:15.821Z,56.77
2022-09-15T19:53:42.155Z,57.02
2022-09-15T19:56:12.062Z,56.89
2022-09-15T19:58:38.385Z,57.08
2022-09-15T20:01:04.722Z,57.02
2022-09-15T20:03:31.065Z,57.16
2022-09-15T20:05:57.861Z,57.12
2022-09-15T20:08:24.314Z,56.98
2022-09-15T20:10:50.618Z,57.10
2022-09-15T20:13:17.000Z,57.20
2022-09-15T20:15:43.519Z,56.97
2022-09-15T20:18:11.423Z,57.07
2022-09-15T20:20:38.890Z,57.04
2022-09-15T20:23:05.262Z,56.97
2022-09-15T20:25:32.261Z,57.27
2022-09-15T20:27:58.658Z,57.28
2022-09-15T20:30:25.032Z,56.84
2022-09-15T20:32:51.716Z,56.92
2022-09-15T20:35:18.039Z,56.92
2022-09-15T20:37:44.407Z,57.26
2022-09-15T20:40:10.816Z,57.19
2022-09-15T20:42:37.161Z,57.07
2022-09-15T20:45:03.983Z,57.13
2022-09-15T20:47:30.285Z,56.85
2022-09-15T20:49:56.597Z,57.23
2022-09-15T20:52:25.814Z,57.22
2022-09-15T20:54:54.314Z,57.22
2022-09-15T20:57:20.618Z,57.18
2022-09-15T20:59:46.962Z,57.15
2022-09-15T21:02:13.312Z,57.17
2022-09-15T21:04:39.855Z,56.97
2022-09-15T21:07:06.197Z,57.36
2022-09-15T21:09:32.506Z,57.19
2022-09-15T21:11:59.985Z,57.02
2022-09-15T21:14:26.302Z,57.11
2022-09-15T21:16:52.735Z,57.05
2022-09-15T21:19:19.113Z,56.98
2022-09-15T21:21:45.544Z,57.10
2022-09-15T21:24:11.855Z,57.23
2022-09-15T21:26:57.772Z,57.37
2022-09-15T21:29:24.093Z,57.13
2022-09-15T21:31:50.466Z,57.15
2022-09-15T21:34:17.004Z,57.01
2022-09-15T21:36:43.337Z,57.17
2022-09-15T21:39:10.025Z,57.01
2022-09-15T21:41:36.374Z,57.36
2022-09-15T21:44:02.693Z,57.36
2022-09-15T21:46:29.411Z,57.15
2022-09-15T21:48:55.966Z,57.19
2022-09-15T21:51:24.881Z,57.15
2022-09-15T21:53:52.099Z,57.14
2022-09-15T21:56:18.414Z,57.37
2022-09-15T21:58:44.729Z,57.54
2022-09-15T22:01:12.423Z,57.34
2022-09-15T22:03:42.055Z,57.45
2022-09-15T22:06:11.705Z,57.26
2022-09-15T22:08:38.500Z,57.25
2022-09-15T22:11:04.823Z,57.17
2022-09-15T22:13:31.125Z,57.08
2022-09-15T22:16:03.789Z,57.36
2022-09-15T22:18:30.147Z,57.09
2022-09-15T22:21:22.915Z,57.41
2022-09-15T22:23:49.855Z,57.22
2022-09-15T22:26:17.440Z,57.13
2022-09-15T22:28:44.071Z,57.52
2022-09-15T22:31:10.999Z,57.12
2022-09-15T22:33:37.517Z,57.22
2022-09-15T22:36:03.867Z,57.30
2022-09-15T22:38:30.298Z,57.27
2022-09-15T22:40:56.657Z,57.57
2022-09-15T22:43:22.974Z,57.51
2022-09-15T22:45:49.560Z,57.35
2022-09-15T22:48:15.963Z,57.31
2022-09-15T22:50:43.561Z,57.47
2022-09-15T22:53:09.956Z,57.48
2022-09-15T22:55:36.269Z,57.58
2022-09-15T22:58:02.591Z,57.63
2022-09-15T23:00:28.966Z,57.30
2022-09-15T23:02:56.113Z,57.42
2022-09-15T23:05:22.437Z,57.44
2022-09-15T23:07:48.750Z,57.44
2022-09-15T23:10:15.086Z,57.15
2022-09-15T23:12:41.461Z,57.17
2022-09-15T23:15:08.023Z,57.20
2022-09-15T23:17:34.393Z,57.36
2022-09-15T23:20:00.831Z,57.29
2022-09-15T23:22:27.158Z,57.04
2022-09-15T23:24:53.475Z,57.40
2022-09-15T23:27:19.822Z,57.34
2022-09-15T23:29:46.192Z,57.31
2022-09-15T23:32:12.510Z,56.88
2022-09-15T23:34:38.846Z,57.08
2022-09-15T23:37:05.158Z,56.76
2022-09-15T23:39:31.479Z,56.97
2022-09-15T23:41:57.799Z,57.03
2022-09-15T23:44:24.160Z,57.11
2022-09-15T23:46:50.494Z,57.29
2022-09-15T23:49:18.823Z,56.68
2022-09-15T23:51:45.261Z,57.09
2022-09-15T23:54:11.574Z,56.96
2022-09-15T23:56:37.896Z,57.12
2022-09-15T23:59:04.204Z,57.03
